Time;durP1;ratioP1;P1;durP2;ratioP2;P2;SDS_P1;SDS_P2;PMS_P1;PMS_P2;Temp;Humidity;BMP_temperature;BMP_pressure;BME280_temperature;BME280_humidity;BME280_pressure;Samples;Min_cycle;Max_cycle;Signal;HPM_P1;HPM_P2
2022/07/27 00:01:57;;;;;;;;;;;14.30;99.90;;;;;;4945306;28;19926;-77
2022/07/27 00:04:23;;;;;;;;;;;14.30;99.90;;;;;;4950288;28;20400;-76
2022/07/27 00:06:49;;;;;;;;;;;14.30;99.90;;;;;;4953513;28;19933;-78
2022/07/27 00:09:18;;;;;;;;;;;14.30;99.90;;;;;;4952739;28;19926;-78
2022/07/27 00:11:44;;;;;;;;;;;14.30;99.90;;;;;;4935261;28;20395;-76
2022/07/27 00:20:42;;;;;;;;;;;14.30;99.90;;;;;;4949941;28;20681;-77
2022/07/27 00:23:08;;;;;;;;;;;13.80;99.90;;;;;;4932902;28;19922;-78
2022/07/27 00:26:25;;;;;;;;;;;14.30;99.90;;;;;;4967300;28;20323;-78
2022/07/27 00:28:51;;;;;;;;;;;14.10;99.90;;;;;;4947886;28;19978;-77
2022/07/27 00:31:23;;;;;;;;;;;14.30;99.90;;;;;;4929386;28;19926;-77
2022/07/27 00:33:49;;;;;;;;;;;14.30;99.90;;;;;;4934371;28;20488;-77
2022/07/27 00:36:39;;;;;;;;;;;14.10;99.90;;;;;;4934744;28;20571;-77
2022/07/27 00:46:09;;;;;;;;;;;;;;;;;;;;;
2022/07/27 00:49:28;;;;;;;;;;;14.30;99.90;;;;;;4966612;28;20064;-79
2022/07/27 00:52:02;;;;;;;;;;;13.80;99.90;;;;;;4951251;28;20054;-77
2022/07/27 00:54:40;;;;;;;;;;;14.20;99.90;;;;;;4938457;28;20316;-79
2022/07/27 00:57:36;;;;;;;;;;;14.20;99.90;;;;;;4954978;28;20012;-76
2022/07/27 01:00:11;;;;;;;;;;;13.70;99.90;;;;;;4938117;28;19990;-78
2022/07/27 01:02:37;;;;;;;;;;;14.70;99.90;;;;;;4920626;28;19926;-77
2022/07/27 01:05:03;;;;;;;;;;;14.10;99.90;;;;;;4921227;28;19981;-78
2022/07/27 01:07:51;;;;;;;;;;;14.10;99.90;;;;;;4926212;28;19986;-78
2022/07/27 01:10:33;;;;;;;;;;;14.10;99.90;;;;;;4944650;28;19926;-79
2022/07/27 01:15:45;;;;;;;;;;;14.00;99.90;;;;;;5012602;28;19936;-79
2022/07/27 01:18:31;;;;;;;;;;;14.00;99.90;;;;;;4968454;23;19930;-77
2022/07/27 01:21:09;;;;;;;;;;;13.90;99.90;;;;;;4966626;28;19927;-78
2022/07/27 01:24:06;;;;;;;;;;;14.50;99.90;;;;;;4952760;28;19930;-78
2022/07/27 01:29:45;;;;;;;;;;;13.90;99.90;;;;;;5113871;23;19975;-77
2022/07/27 01:32:11;;;;;;;;;;;13.80;99.90;;;;;;4940569;28;19930;-77
2022/07/27 01:34:38;;;;;;;;;;;14.00;99.90;;;;;;4980549;28;19930;-78
2022/07/27 01:37:05;;;;;;;;;;;15.30;99.90;;;;;;4960259;28;19930;-77
2022/07/27 01:39:42;;;;;;;;;;;13.70;99.90;;;;;;4957753;28;19988;-78
2022/07/27 01:42:07;;;;;;;;;;;13.70;99.90;;;;;;4990221;28;19925;-78
2022/07/27 01:44:33;;;;;;;;;;;13.70;99.90;;;;;;4970149;28;19926;-77
2022/07/27 01:46:59;;;;;;;;;;;13.70;99.90;;;;;;4953719;28;19930;-77
2022/07/27 01:49:25;;;;;;;;;;;13.60;99.90;;;;;;4977300;28;19937;-77
2022/07/27 01:51:51;;;;;;;;;;;13.60;99.90;;;;;;4983103;28;20190;-79
2022/07/27 01:54:17;;;;;;;;;;;13.60;99.90;;;;;;4964278;28;19926;-77
2022/07/27 01:56:46;;;;;;;;;;;13.60;99.90;;;;;;4955766;28;19937;-79
2022/07/27 01:59:12;;;;;;;;;;;13.60;99.90;;;;;;4956502;28;19922;-79
2022/07/27 02:01:38;;;;;;;;;;;13.60;99.90;;;;;;4957136;28;19973;-78
2022/07/27 02:04:05;;;;;;;;;;;13.60;99.90;;;;;;4976155;28;19945;-79
2022/07/27 02:09:05;;;;;;;;;;;13.60;99.90;;;;;;5007063;23;20340;-77
2022/07/27 02:14:17;;;;;;;;;;;13.60;99.90;;;;;;4979581;28;20449;-79
2022/07/27 02:16:43;;;;;;;;;;;13.60;99.90;;;;;;4963792;28;19980;-79
2022/07/27 02:19:08;;;;;;;;;;;13.60;99.90;;;;;;4978950;28;19972;-79
2022/07/27 02:22:02;;;;;;;;;;;13.60;99.90;;;;;;5001781;28;19930;-78
2022/07/27 02:24:44;;;;;;;;;;;13.50;99.90;;;;;;4999560;28;19928;-78
2022/07/27 02:27:10;;;;;;;;;;;13.60;99.90;;;;;;4978003;28;20399;-78
2022/07/27 02:29:36;;;;;;;;;;;13.60;99.90;;;;;;4992091;28;19979;-78
2022/07/27 02:32:02;;;;;;;;;;;13.50;99.90;;;;;;4964117;23;19926;-77
2022/07/27 02:34:28;;;;;;;;;;;13.60;99.90;;;;;;4966187;28;20393;-79
2022/07/27 02:36:55;;;;;;;;;;;13.50;99.90;;;;;;4950402;29;20320;-77
2022/07/27 02:39:40;;;;;;;;;;;13.50;99.90;;;;;;4947547;29;19927;-80
2022/07/27 02:42:06;;;;;;;;;;;13.50;99.90;;;;;;4949225;28;19931;-77
2022/07/27 02:44:32;;;;;;;;;;;13.50;99.90;;;;;;4949415;28;20712;-79
2022/07/27 02:46:57;;;;;;;;;;;13.40;99.90;;;;;;4934050;29;19929;-78
2022/07/27 02:49:26;;;;;;;;;;;13.50;99.90;;;;;;4929193;29;19954;-77
2022/07/27 02:51:53;;;;;;;;;;;13.50;99.90;;;;;;4918185;29;19933;-79
2022/07/27 02:54:20;;;;;;;;;;;13.40;99.90;;;;;;4943560;28;20413;-78
2022/07/27 02:56:50;;;;;;;;;;;13.40;99.90;;;;;;4967688;28;19932;-78
2022/07/27 02:59:17;;;;;;;;;;;13.50;99.90;;;;;;4953264;28;19942;-78
2022/07/27 03:01:43;;;;;;;;;;;13.50;99.90;;;;;;4958282;28;19938;-77
2022/07/27 03:04:09;;;;;;;;;;;13.50;99.90;;;;;;4920292;28;20048;-79
2022/07/27 03:06:35;;;;;;;;;;;13.40;99.90;;;;;;4934277;29;19926;-78
2022/07/27 03:09:03;;;;;;;;;;;13.40;99.90;;;;;;4930226;29;20063;-78
2022/07/27 03:11:40;;;;;;;;;;;13.40;99.90;;;;;;4932827;29;20152;-78
2022/07/27 03:14:06;;;;;;;;;;;13.40;99.90;;;;;;4969765;28;19984;-79
2022/07/27 03:16:31;;;;;;;;;;;13.40;99.90;;;;;;4932619;28;19977;-78
2022/07/27 03:18:57;;;;;;;;;;;13.40;99.90;;;;;;4942675;28;20562;-79
2022/07/27 03:21:24;;;;;;;;;;;13.40;99.90;;;;;;4948898;28;20497;-77
2022/07/27 03:23:50;;;;;;;;;;;13.40;99.90;;;;;;4936355;28;20029;-78
2022/07/27 03:26:17;;;;;;;;;;;13.40;99.90;;;;;;4960409;28;20025;-81
2022/07/27 03:28:42;;;;;;;;;;;13.30;99.90;;;;;;4933018;29;19934;-78
2022/07/27 03:31:09;;;;;;;;;;;13.30;99.90;;;;;;4958136;28;19919;-78
2022/07/27 03:33:40;;;;;;;;;;;13.30;99.90;;;;;;4957847;28;19953;-77
2022/07/27 03:36:06;;;;;;;;;;;13.30;99.90;;;;;;4970863;28;20316;-78
2022/07/27 03:38:32;;;;;;;;;;;13.40;99.90;;;;;;4935595;28;19922;-77
2022/07/27 03:40:58;;;;;;;;;;;13.40;99.90;;;;;;4949329;28;19948;-78
2022/07/27 03:43:26;;;;;;;;;;;13.40;99.90;;;;;;4918523;28;19961;-78
2022/07/27 03:45:55;;;;;;;;;;;13.40;99.90;;;;;;4968129;28;19973;-77
2022/07/27 03:48:21;;;;;;;;;;;13.40;99.90;;;;;;4954245;28;19977;-78
2022/07/27 03:50:47;;;;;;;;;;;13.40;99.90;;;;;;5197288;23;19957;-79
2022/07/27 03:53:13;;;;;;;;;;;13.40;99.90;;;;;;4958702;28;19925;-78
2022/07/27 03:55:39;;;;;;;;;;;13.40;99.90;;;;;;4965394;28;19980;-79
2022/07/27 03:58:17;;;;;;;;;;;13.40;99.90;;;;;;4957073;23;20523;-78
2022/07/27 04:00:44;;;;;;;;;;;13.00;99.90;;;;;;4949666;28;19972;-79
2022/07/27 04:03:11;;;;;;;;;;;13.40;99.90;;;;;;4964825;28;19934;-77
2022/07/27 04:05:41;;;;;;;;;;;13.40;99.90;;;;;;4955033;28;19981;-77
2022/07/27 04:08:06;;;;;;;;;;;13.50;99.90;;;;;;4967760;28;20381;-79
2022/07/27 04:10:38;;;;;;;;;;;13.50;99.90;;;;;;4960699;28;20504;-79
2022/07/27 04:13:11;;;;;;;;;;;13.50;99.90;;;;;;4945537;28;20415;-78
2022/07/27 04:15:38;;;;;;;;;;;13.50;99.90;;;;;;4956049;28;19996;-78
2022/07/27 04:18:07;;;;;;;;;;;13.50;99.90;;;;;;4942890;28;19940;-78
2022/07/27 04:20:33;;;;;;;;;;;13.50;99.90;;;;;;4951587;28;19984;-77
2022/07/27 04:23:02;;;;;;;;;;;13.50;99.90;;;;;;4970541;28;19930;-80
2022/07/27 04:25:27;;;;;;;;;;;13.50;99.90;;;;;;5083904;23;19936;-78
2022/07/27 04:27:53;;;;;;;;;;;13.60;99.90;;;;;;4946663;28;20020;-78
2022/07/27 04:30:22;;;;;;;;;;;13.60;99.90;;;;;;4960842;28;19926;-79
2022/07/27 04:32:48;;;;;;;;;;;13.60;99.90;;;;;;4966263;28;19933;-79
2022/07/27 04:35:14;;;;;;;;;;;13.60;99.90;;;;;;4977600;28;20010;-79
2022/07/27 04:37:40;;;;;;;;;;;13.60;99.90;;;;;;4957761;28;20372;-78
2022/07/27 04:40:07;;;;;;;;;;;13.60;99.90;;;;;;4974921;28;19929;-80
2022/07/27 04:42:33;;;;;;;;;;;13.70;99.90;;;;;;4971740;28;19940;-78
2022/07/27 04:44:59;;;;;;;;;;;13.70;99.90;;;;;;4973154;28;19930;-77
2022/07/27 04:47:25;;;;;;;;;;;13.70;99.90;;;;;;4986557;28;20029;-78
2022/07/27 04:49:51;;;;;;;;;;;13.70;99.90;;;;;;4964830;28;19953;-80
2022/07/27 04:52:16;;;;;;;;;;;13.70;99.90;;;;;;4979113;28;19955;-78
2022/07/27 04:54:43;;;;;;;;;;;13.70;99.90;;;;;;4957134;28;19937;-76
2022/07/27 04:57:09;;;;;;;;;;;13.70;99.90;;;;;;4973019;28;20437;-77
2022/07/27 04:59:35;;;;;;;;;;;13.80;99.90;;;;;;4979131;28;20371;-77
2022/07/27 05:02:02;;;;;;;;;;;13.80;99.90;;;;;;4956687;28;20241;-75
2022/07/27 05:04:27;;;;;;;;;;;13.80;99.90;;;;;;4971906;28;20751;-78
2022/07/27 05:06:53;;;;;;;;;;;13.80;99.90;;;;;;4953837;28;20009;-78
2022/07/27 05:09:38;;;;;;;;;;;13.80;99.90;;;;;;4981915;28;19910;-78
2022/07/27 05:12:23;;;;;;;;;;;13.90;99.90;;;;;;4956308;28;19926;-77
2022/07/27 05:14:53;;;;;;;;;;;13.90;99.90;;;;;;4960511;28;19989;-77
2022/07/27 05:17:19;;;;;;;;;;;14.00;99.90;;;;;;4975479;28;20059;-77
2022/07/27 05:19:45;;;;;;;;;;;;;;;;;;4974704;28;20008;-78
2022/07/27 05:22:10;;;;;;;;;;;14.10;99.90;;;;;;4978640;28;20065;-79
2022/07/27 05:24:36;;;;;;;;;;;14.10;99.90;;;;;;4961037;28;20434;-79
2022/07/27 05:27:02;;;;;;;;;;;14.10;99.90;;;;;;4942111;28;19988;-80
2022/07/27 05:29:28;;;;;;;;;;;14.10;99.90;;;;;;4954598;28;20016;-78
2022/07/27 05:31:54;;;;;;;;;;;14.10;99.90;;;;;;4970382;28;19930;-78
2022/07/27 05:34:19;;;;;;;;;;;14.10;99.90;;;;;;4961118;28;19929;-79
2022/07/27 05:36:45;;;;;;;;;;;14.00;99.90;;;;;;4970593;28;19929;-79
2022/07/27 05:39:11;;;;;;;;;;;14.00;99.90;;;;;;4954853;28;19965;-79
2022/07/27 05:41:37;;;;;;;;;;;14.10;99.90;;;;;;4950556;28;19933;-80
2022/07/27 05:44:03;;;;;;;;;;;14.10;99.90;;;;;;4952617;28;19984;-84
2022/07/27 05:46:32;;;;;;;;;;;14.10;99.90;;;;;;4972681;28;19925;-85
2022/07/27 05:48:58;;;;;;;;;;;14.10;99.90;;;;;;4945180;28;19933;-84
2022/07/27 05:51:24;;;;;;;;;;;14.10;99.90;;;;;;4961146;28;20514;-84
2022/07/27 05:53:50;;;;;;;;;;;14.20;99.90;;;;;;4961039;28;20004;-84
2022/07/27 05:56:15;;;;;;;;;;;14.20;99.90;;;;;;4972483;28;20369;-84
2022/07/27 05:58:41;;;;;;;;;;;14.20;99.90;;;;;;4976240;28;19933;-82
2022/07/27 06:01:07;;;;;;;;;;;14.30;99.90;;;;;;4960036;28;19929;-83
2022/07/27 06:03:33;;;;;;;;;;;14.30;99.90;;;;;;4961128;28;19929;-82
2022/07/27 06:08:43;;;;;;;;;;;14.50;99.90;;;;;;4975977;28;19937;-82
2022/07/27 06:11:09;;;;;;;;;;;14.60;99.90;;;;;;4980386;28;19975;-83
2022/07/27 06:13:35;;;;;;;;;;;14.70;99.90;;;;;;4962633;28;20029;-81
2022/07/27 06:16:01;;;;;;;;;;;14.70;99.90;;;;;;4977670;28;19993;-83
2022/07/27 06:18:27;;;;;;;;;;;14.90;99.90;;;;;;4979388;28;20428;-80
2022/07/27 06:20:53;;;;;;;;;;;15.20;99.90;;;;;;4980510;28;20050;-81
2022/07/27 06:23:19;;;;;;;;;;;15.40;99.90;;;;;;4977389;28;19932;-81
2022/07/27 06:25:45;;;;;;;;;;;15.60;99.90;;;;;;4961851;28;19930;-81
2022/07/27 06:28:11;;;;;;;;;;;15.90;99.90;;;;;;4950941;28;19930;-80
2022/07/27 06:30:37;;;;;;;;;;;16.00;99.90;;;;;;4943075;28;19984;-81
2022/07/27 06:33:05;;;;;;;;;;;16.10;99.90;;;;;;4974376;28;20020;-82
2022/07/27 06:35:31;;;;;;;;;;;16.20;99.90;;;;;;4959841;28;19984;-81
2022/07/27 06:37:57;;;;;;;;;;;16.20;99.90;;;;;;4978876;28;19926;-81
2022/07/27 06:40:23;;;;;;;;;;;16.30;99.90;;;;;;4960877;28;20526;-80
2022/07/27 06:42:49;;;;;;;;;;;16.40;99.90;;;;;;4970122;28;19984;-83
2022/07/27 06:45:15;;;;;;;;;;;16.50;99.90;;;;;;4970670;28;19926;-81
2022/07/27 06:47:41;;;;;;;;;;;16.60;99.90;;;;;;4979459;28;19929;-83
2022/07/27 06:50:07;;;;;;;;;;;16.90;99.90;;;;;;4962878;28;19938;-83
2022/07/27 06:52:34;;;;;;;;;;;17.50;99.90;;;;;;4962413;28;19944;-82
2022/07/27 06:54:59;;;;;;;;;;;18.50;99.90;;;;;;4958269;28;19926;-85
2022/07/27 06:57:25;;;;;;;;;;;19.80;99.90;;;;;;4957795;28;20706;-80
2022/07/27 06:59:51;;;;;;;;;;;19.90;99.90;;;;;;4940466;28;19930;-81
2022/07/27 07:02:17;;;;;;;;;;;20.30;99.90;;;;;;4944974;28;19926;-82
2022/07/27 07:04:43;;;;;;;;;;;20.50;99.90;;;;;;4975062;28;19941;-81
2022/07/27 07:07:08;;;;;;;;;;;20.90;99.90;;;;;;4951499;28;19973;-82
2022/07/27 07:09:34;;;;;;;;;;;21.20;99.90;;;;;;4955541;28;20009;-80
2022/07/27 07:12:01;;;;;;;;;;;21.50;99.90;;;;;;4962580;28;19930;-84
2022/07/27 07:14:27;;;;;;;;;;;22.20;99.90;;;;;;4956569;28;19945;-84
2022/07/27 07:16:52;;;;;;;;;;;22.70;99.90;;;;;;4975380;28;19930;-82
2022/07/27 07:19:19;;;;;;;;;;;21.90;99.00;;;;;;4964359;28;19969;-87
2022/07/27 07:21:45;;;;;;;;;;;20.60;98.70;;;;;;4974082;28;19926;-83
2022/07/27 07:24:12;;;;;;;;;;;19.70;99.90;;;;;;4961523;28;19933;-86
2022/07/27 07:26:38;;;;;;;;;;;18.80;99.90;;;;;;4939237;28;19933;-81
2022/07/27 07:29:05;;;;;;;;;;;18.00;99.90;;;;;;4977457;28;19930;-80
2022/07/27 07:31:31;;;;;;;;;;;17.50;99.90;;;;;;4958037;28;19937;-79
2022/07/27 07:33:57;;;;;;;;;;;16.90;99.90;;;;;;4960980;28;19926;-80
2022/07/27 07:36:23;;;;;;;;;;;16.50;99.90;;;;;;4962016;28;20432;-80
2022/07/27 07:38:49;;;;;;;;;;;16.20;99.90;;;;;;4971806;28;19936;-80
2022/07/27 07:41:15;;;;;;;;;;;16.00;99.90;;;;;;4936108;28;19961;-81
2022/07/27 07:43:41;;;;;;;;;;;15.70;99.90;;;;;;4967299;28;19930;-80
2022/07/27 07:46:07;;;;;;;;;;;15.50;99.90;;;;;;4955033;28;19922;-82
2022/07/27 07:48:33;;;;;;;;;;;15.20;99.90;;;;;;4954040;28;19934;-80
2022/07/27 07:50:59;;;;;;;;;;;15.10;99.90;;;;;;4936729;28;19948;-80
2022/07/27 07:53:25;;;;;;;;;;;15.10;99.90;;;;;;4966454;28;19999;-80
2022/07/27 07:55:52;;;;;;;;;;;15.10;99.90;;;;;;4954437;28;19933;-81
2022/07/27 07:58:18;;;;;;;;;;;15.10;99.90;;;;;;4963246;28;19926;-80
2022/07/27 08:00:44;;;;;;;;;;;15.20;99.90;;;;;;4950410;28;20005;-81
2022/07/27 08:03:10;;;;;;;;;;;15.20;99.90;;;;;;4949399;28;20021;-79
2022/07/27 08:05:37;;;;;;;;;;;15.20;99.90;;;;;;4945706;28;20388;-80
2022/07/27 08:08:02;;;;;;;;;;;15.30;99.90;;;;;;4970157;28;20619;-79
2022/07/27 08:10:29;;;;;;;;;;;15.30;99.90;;;;;;4950908;28;19926;-81
2022/07/27 08:23:01;;;;;;;;;;;15.40;99.90;;;;;;4989872;28;19977;-83
2022/07/27 08:25:28;;;;;;;;;;;15.40;99.90;;;;;;4954830;28;20369;-82
2022/07/27 08:27:54;;;;;;;;;;;15.40;99.90;;;;;;4953381;28;19926;-83
2022/07/27 08:30:20;;;;;;;;;;;15.30;99.90;;;;;;4936172;28;20060;-83
2022/07/27 08:32:50;;;;;;;;;;;15.30;99.90;;;;;;4952907;28;20009;-80
2022/07/27 08:35:17;;;;;;;;;;;15.30;99.90;;;;;;4968405;28;19939;-80
2022/07/27 08:37:43;;;;;;;;;;;15.30;99.90;;;;;;4968975;28;20029;-80
2022/07/27 08:40:09;;;;;;;;;;;15.40;99.90;;;;;;4969630;28;20361;-81
2022/07/27 08:42:35;;;;;;;;;;;15.50;99.90;;;;;;4972421;28;19973;-79
2022/07/27 08:45:02;;;;;;;;;;;15.60;99.90;;;;;;4948831;28;19969;-80
2022/07/27 08:47:28;;;;;;;;;;;15.70;99.90;;;;;;4944556;28;20017;-81
2022/07/27 08:49:54;;;;;;;;;;;15.80;99.90;;;;;;4964011;28;19926;-81
2022/07/27 08:52:20;;;;;;;;;;;15.80;99.90;;;;;;4955955;28;19926;-80
2022/07/27 08:54:46;;;;;;;;;;;15.90;99.90;;;;;;4958525;28;20009;-81
2022/07/27 08:57:12;;;;;;;;;;;16.00;99.90;;;;;;4950733;28;19933;-81
2022/07/27 08:59:37;;;;;;;;;;;16.10;99.90;;;;;;4962855;28;19934;-80
2022/07/27 09:02:22;;;;;;;;;;;16.20;99.90;;;;;;4955153;28;19948;-81
2022/07/27 09:04:48;;;;;;;;;;;16.40;99.90;;;;;;4960890;28;20017;-82
2022/07/27 09:07:26;;;;;;;;;;;16.70;99.90;;;;;;4930545;28;20473;-80
2022/07/27 09:09:53;;;;;;;;;;;17.00;99.90;;;;;;4966894;28;19933;-83
2022/07/27 09:12:25;;;;;;;;;;;17.30;99.90;;;;;;4952149;28;20361;-80
2022/07/27 09:15:01;;;;;;;;;;;17.40;99.90;;;;;;4957495;28;19930;-80
2022/07/27 09:17:27;;;;;;;;;;;17.50;99.90;;;;;;4946512;28;19996;-80
2022/07/27 09:19:54;;;;;;;;;;;17.70;99.90;;;;;;4937043;28;19934;-80
2022/07/27 09:22:38;;;;;;;;;;;17.70;99.90;;;;;;4953178;28;19988;-82
2022/07/27 09:25:05;;;;;;;;;;;17.70;99.90;;;;;;4949265;28;20511;-80
2022/07/27 09:27:31;;;;;;;;;;;17.90;99.90;;;;;;4968607;28;20040;-81
2022/07/27 09:30:01;;;;;;;;;;;18.20;99.90;;;;;;4966911;28;19980;-85
2022/07/27 09:32:29;;;;;;;;;;;18.40;99.90;;;;;;4969357;28;19927;-92
2022/07/27 09:34:55;;;;;;;;;;;18.50;99.90;;;;;;4955474;28;19926;-81
2022/07/27 09:37:25;;;;;;;;;;;18.50;99.90;;;;;;4969308;28;19937;-87
2022/07/27 09:40:08;;;;;;;;;;;18.60;99.90;;;;;;4952280;28;19930;-82
2022/07/27 09:42:34;;;;;;;;;;;18.80;99.90;;;;;;4956839;28;19926;-85
2022/07/27 09:45:00;;;;;;;;;;;18.90;99.90;;;;;;4952517;28;19930;-87
2022/07/27 09:47:28;;;;;;;;;;;19.10;99.90;;;;;;4973012;28;19930;-85
2022/07/27 09:49:55;;;;;;;;;;;19.20;99.90;;;;;;4979278;28;19980;-86
2022/07/27 09:52:25;;;;;;;;;;;19.20;99.90;;;;;;4967182;28;19930;-81
2022/07/27 09:54:51;;;;;;;;;;;19.30;99.90;;;;;;4970128;28;19980;-80
2022/07/27 09:57:17;;;;;;;;;;;19.20;99.90;;;;;;4938232;28;19934;-85
2022/07/27 09:59:43;;;;;;;;;;;19.00;99.90;;;;;;4969702;28;20480;-82
2022/07/27 10:02:11;;;;;;;;;;;18.80;99.90;;;;;;4967347;28;19984;-83
2022/07/27 10:04:37;;;;;;;;;;;18.80;99.90;;;;;;4960178;28;19940;-82
2022/07/27 10:07:03;;;;;;;;;;;18.70;99.90;;;;;;4952603;28;20104;-80
2022/07/27 10:09:30;;;;;;;;;;;18.70;99.90;;;;;;4969309;28;20086;-81
2022/07/27 10:11:56;;;;;;;;;;;18.70;99.90;;;;;;4938027;28;19929;-85
2022/07/27 10:14:22;;;;;;;;;;;18.60;99.90;;;;;;4951221;28;19933;-79
2022/07/27 10:16:48;;;;;;;;;;;18.50;99.90;;;;;;4968804;28;19929;-82
2022/07/27 10:19:17;;;;;;;;;;;18.30;99.90;;;;;;4953486;28;19953;-82
2022/07/27 10:21:44;;;;;;;;;;;18.40;99.90;;;;;;4955315;28;20249;-82
2022/07/27 10:24:22;;;;;;;;;;;18.60;99.90;;;;;;4970708;28;20025;-82
2022/07/27 10:26:48;;;;;;;;;;;18.60;99.90;;;;;;4952077;28;19992;-80
2022/07/27 10:29:14;;;;;;;;;;;18.80;99.90;;;;;;4955071;28;20349;-84
2022/07/27 10:31:40;;;;;;;;;;;18.70;99.90;;;;;;4953395;28;19926;-81
2022/07/27 10:34:07;;;;;;;;;;;18.70;99.90;;;;;;4971827;28;20115;-78
2022/07/27 10:36:33;;;;;;;;;;;18.70;99.90;;;;;;4971180;28;19930;-83
2022/07/27 10:39:06;;;;;;;;;;;18.50;99.90;;;;;;4973724;28;20488;-81
2022/07/27 10:41:33;;;;;;;;;;;18.40;99.90;;;;;;4959438;28;19934;-88
2022/07/27 10:44:17;;;;;;;;;;;18.30;99.90;;;;;;4958240;28;19938;-83
2022/07/27 10:46:44;;;;;;;;;;;18.20;99.90;;;;;;4971557;28;20413;-78
2022/07/27 10:49:20;;;;;;;;;;;18.40;99.90;;;;;;4971002;28;19961;-79
2022/07/27 10:51:47;;;;;;;;;;;18.80;99.90;;;;;;4952792;28;20056;-83
2022/07/27 10:54:26;;;;;;;;;;;18.90;99.90;;;;;;4976805;28;19968;-83
2022/07/27 10:56:53;;;;;;;;;;;18.90;99.90;;;;;;4964963;28;19930;-82
2022/07/27 10:59:38;;;;;;;;;;;19.00;99.90;;;;;;4960226;28;19936;-82
2022/07/27 11:02:22;;;;;;;;;;;18.80;99.90;;;;;;4978512;28;19949;-82
2022/07/27 11:04:50;;;;;;;;;;;18.60;99.90;;;;;;4974197;28;20448;-80
2022/07/27 11:07:25;;;;;;;;;;;18.50;99.90;;;;;;4978244;28;19922;-82
2022/07/27 11:09:51;;;;;;;;;;;18.90;99.90;;;;;;4955230;28;19940;-81
2022/07/27 11:12:18;;;;;;;;;;;19.30;99.90;;;;;;4972059;28;20530;-79
2022/07/27 11:14:45;;;;;;;;;;;19.40;99.90;;;;;;4970858;28;20407;-82
2022/07/27 11:17:11;;;;;;;;;;;19.20;99.90;;;;;;4958187;28;19929;-78
2022/07/27 11:19:37;;;;;;;;;;;19.10;99.90;;;;;;4955112;28;19996;-85
2022/07/27 11:22:02;;;;;;;;;;;18.90;99.90;;;;;;4959350;28;20153;-82
2022/07/27 11:24:28;;;;;;;;;;;18.90;99.90;;;;;;4954149;28;19977;-83
2022/07/27 11:26:54;;;;;;;;;;;19.10;99.90;;;;;;4970347;28;19926;-84
2022/07/27 11:29:21;;;;;;;;;;;19.20;99.90;;;;;;4944934;28;19936;-80
2022/07/27 11:31:50;;;;;;;;;;;19.40;99.90;;;;;;4967739;28;20491;-85
2022/07/27 11:34:17;;;;;;;;;;;19.40;99.90;;;;;;4951604;28;19929;-84
2022/07/27 11:36:44;;;;;;;;;;;19.60;99.90;;;;;;4955226;28;19934;-80
2022/07/27 11:39:12;;;;;;;;;;;19.80;99.90;;;;;;4950091;28;19941;-83
2022/07/27 11:41:40;;;;;;;;;;;20.00;99.60;;;;;;4975376;28;20405;-85
2022/07/27 11:44:10;;;;;;;;;;;20.20;99.90;;;;;;4958697;28;20623;-82
2022/07/27 11:46:43;;;;;;;;;;;20.40;99.90;;;;;;4972892;28;19934;-80
2022/07/27 11:49:10;;;;;;;;;;;20.40;99.90;;;;;;4995449;28;19925;-82
2022/07/27 11:51:38;;;;;;;;;;;20.00;99.80;;;;;;4969873;28;19929;-81
2022/07/27 11:54:05;;;;;;;;;;;20.00;99.90;;;;;;4978419;28;19933;-79
2022/07/27 11:56:32;;;;;;;;;;;19.70;99.90;;;;;;4989105;28;20377;-79
2022/07/27 11:59:00;;;;;;;;;;;19.70;99.90;;;;;;4969363;28;19929;-79
2022/07/27 12:01:32;;;;;;;;;;;19.40;99.90;;;;;;4963121;28;19930;-78
2022/07/27 12:04:05;;;;;;;;;;;19.30;99.90;;;;;;4968754;28;19991;-79
2022/07/27 12:06:32;;;;;;;;;;;19.00;99.90;;;;;;4967259;28;19977;-79
2022/07/27 12:08:58;;;;;;;;;;;18.90;99.90;;;;;;4950389;28;20653;-80
2022/07/27 12:11:28;;;;;;;;;;;18.80;99.90;;;;;;4970115;28;20021;-78
2022/07/27 12:13:58;;;;;;;;;;;18.90;99.90;;;;;;4984726;28;20949;-81
2022/07/27 12:16:23;;;;;;;;;;;18.90;99.90;;;;;;4981348;28;19934;-81
2022/07/27 12:18:49;;;;;;;;;;;18.90;99.90;;;;;;4986774;28;20340;-84
2022/07/27 12:21:18;;;;;;;;;;;18.80;99.90;;;;;;4968823;28;19948;-81
2022/07/27 12:23:51;;;;;;;;;;;18.80;99.90;;;;;;4969085;28;19942;-80
2022/07/27 12:26:17;;;;;;;;;;;18.80;99.90;;;;;;4982925;28;19926;-80
2022/07/27 12:28:43;;;;;;;;;;;19.00;99.90;;;;;;4963072;28;19934;-82
2022/07/27 12:31:17;;;;;;;;;;;19.20;99.90;;;;;;4932682;28;19993;-80
2022/07/27 12:33:42;;;;;;;;;;;19.10;99.90;;;;;;4986314;28;19926;-82
2022/07/27 12:36:08;;;;;;;;;;;18.80;99.90;;;;;;4978195;28;19992;-80
2022/07/27 12:38:38;;;;;;;;;;;18.60;99.90;;;;;;4944832;28;19974;-82
2022/07/27 12:41:04;;;;;;;;;;;18.80;99.90;;;;;;4969555;28;20759;-79
2022/07/27 12:43:31;;;;;;;;;;;18.90;99.90;;;;;;4962646;28;19930;-86
2022/07/27 12:46:10;;;;;;;;;;;19.20;99.90;;;;;;4946846;28;19937;-83
2022/07/27 12:48:37;;;;;;;;;;;19.00;99.90;;;;;;4960741;28;19940;-80
2022/07/27 12:51:04;;;;;;;;;;;19.20;99.90;;;;;;4981125;28;20348;-80
2022/07/27 12:53:31;;;;;;;;;;;19.40;99.90;;;;;;4966012;28;20415;-84
2022/07/27 12:55:58;;;;;;;;;;;19.40;98.80;;;;;;4962912;28;20056;-80
2022/07/27 12:58:24;;;;;;;;;;;19.50;99.90;;;;;;4978894;28;21081;-78
2022/07/27 13:00:50;;;;;;;;;;;19.60;99.90;;;;;;4978458;28;19933;-81
2022/07/27 13:03:16;;;;;;;;;;;19.40;99.90;;;;;;4975449;28;20012;-79
2022/07/27 13:05:42;;;;;;;;;;;19.20;99.90;;;;;;4974848;28;20405;-81
2022/07/27 13:08:08;;;;;;;;;;;19.10;99.90;;;;;;4959765;28;20377;-81
2022/07/27 13:10:38;;;;;;;;;;;19.00;99.90;;;;;;4934344;28;20021;-82
2022/07/27 13:13:05;;;;;;;;;;;19.20;99.90;;;;;;4964218;28;19926;-82
2022/07/27 13:15:31;;;;;;;;;;;19.20;99.90;;;;;;4936402;28;19980;-78
2022/07/27 13:17:57;;;;;;;;;;;19.10;99.90;;;;;;4950535;28;19926;-81
2022/07/27 13:20:22;;;;;;;;;;;19.00;99.90;;;;;;4948825;28;19933;-79
2022/07/27 13:22:48;;;;;;;;;;;18.90;99.90;;;;;;4967507;28;19926;-79
2022/07/27 13:25:14;;;;;;;;;;;18.80;99.90;;;;;;4963577;28;20482;-78
2022/07/27 13:27:40;;;;;;;;;;;18.80;99.90;;;;;;4947180;28;19937;-78
2022/07/27 13:30:08;;;;;;;;;;;18.70;99.90;;;;;;4948319;28;19930;-79
2022/07/27 13:32:34;;;;;;;;;;;18.70;99.90;;;;;;4947849;28;19953;-82
2022/07/27 13:35:00;;;;;;;;;;;18.70;99.90;;;;;;4953344;28;19988;-81
2022/07/27 13:37:26;;;;;;;;;;;18.70;99.90;;;;;;4983553;28;19976;-80
2022/07/27 13:39:52;;;;;;;;;;;18.70;99.90;;;;;;4947947;28;19934;-82
2022/07/27 13:42:20;;;;;;;;;;;18.70;99.90;;;;;;4952997;28;19933;-81
2022/07/27 13:44:45;;;;;;;;;;;18.70;99.90;;;;;;4931538;28;20020;-80
2022/07/27 13:47:11;;;;;;;;;;;18.60;99.90;;;;;;4947807;28;20024;-78
2022/07/27 13:49:37;;;;;;;;;;;18.60;99.90;;;;;;4950177;28;19934;-78
2022/07/27 13:52:03;;;;;;;;;;;18.60;99.90;;;;;;4964693;28;20310;-80
2022/07/27 13:54:29;;;;;;;;;;;18.50;99.90;;;;;;4967100;28;19934;-78
2022/07/27 13:56:54;;;;;;;;;;;18.50;99.90;;;;;;4952238;28;20374;-79
2022/07/27 13:59:20;;;;;;;;;;;18.60;99.90;;;;;;4961791;28;20348;-85
2022/07/27 14:01:51;;;;;;;;;;;18.60;99.90;;;;;;4946515;28;19939;-78
2022/07/27 14:04:17;;;;;;;;;;;18.70;99.90;;;;;;4950031;28;20050;-79
2022/07/27 14:06:43;;;;;;;;;;;18.60;99.90;;;;;;4963333;28;20441;-83
2022/07/27 14:09:09;;;;;;;;;;;18.50;99.90;;;;;;4952160;28;19968;-83
2022/07/27 14:11:36;;;;;;;;;;;18.50;99.90;;;;;;4947523;28;19929;-80
2022/07/27 14:14:04;;;;;;;;;;;18.50;99.90;;;;;;4949095;28;19930;-88
2022/07/27 14:16:30;;;;;;;;;;;18.60;99.90;;;;;;4929692;28;19930;-78
2022/07/27 14:18:56;;;;;;;;;;;18.60;99.90;;;;;;4946161;28;20440;-78
2022/07/27 14:21:22;;;;;;;;;;;18.80;99.90;;;;;;4964735;28;19945;-79
2022/07/27 14:23:48;;;;;;;;;;;18.80;99.90;;;;;;4963854;28;19930;-79
2022/07/27 14:26:14;;;;;;;;;;;18.70;99.90;;;;;;4932186;28;19988;-84
2022/07/27 14:28:41;;;;;;;;;;;18.70;99.90;;;;;;4959626;28;20427;-79
2022/07/27 14:31:08;;;;;;;;;;;18.70;99.90;;;;;;4981666;28;19922;-79
2022/07/27 14:33:34;;;;;;;;;;;18.60;99.90;;;;;;4965389;28;20415;-79
2022/07/27 14:36:00;;;;;;;;;;;18.60;99.90;;;;;;4948113;28;19932;-83
2022/07/27 14:38:26;;;;;;;;;;;18.60;99.90;;;;;;4949101;28;19934;-79
2022/07/27 14:40:52;;;;;;;;;;;18.60;99.90;;;;;;4966927;28;19942;-80
2022/07/27 14:43:18;;;;;;;;;;;18.70;99.90;;;;;;4962669;28;19926;-78
2022/07/27 14:45:46;;;;;;;;;;;18.60;99.90;;;;;;4961863;28;19929;-79
2022/07/27 14:48:16;;;;;;;;;;;18.60;99.90;;;;;;4961951;28;20031;-79
2022/07/27 14:50:42;;;;;;;;;;;18.60;99.90;;;;;;4962348;28;19984;-79
2022/07/27 14:53:08;;;;;;;;;;;18.40;99.90;;;;;;4960695;28;19977;-78
2022/07/27 14:55:35;;;;;;;;;;;18.40;99.90;;;;;;4959177;28;20644;-81
2022/07/27 14:58:01;;;;;;;;;;;18.30;99.90;;;;;;4947399;28;19937;-84
2022/07/27 15:00:27;;;;;;;;;;;18.30;99.90;;;;;;4946372;28;19929;-84
2022/07/27 15:02:52;;;;;;;;;;;18.30;99.90;;;;;;4945859;28;19934;-84